Time;durP1;ratioP1;P1;durP2;ratioP2;P2;SDS_P1;SDS_P2;PMS_P1;PMS_P2;Temp;Humidity;BMP_temperature;BMP_pressure;BME280_temperature;BME280_humidity;BME280_pressure;Samples;Min_cycle;Max_cycle;Signal;HPM_P1;HPM_P2
2021/11/04 00:02:09;;;;;;;34.50;23.77;;;;;;;7.57;91.63;100158.03;1738608;82;21077;-77
2021/11/04 00:04:36;;;;;;;33.88;24.55;;;;;;;7.55;92.03;100162.77;1739064;82;20994;-77
2021/11/04 00:07:05;;;;;;;38.33;26.55;;;;;;;7.49;92.61;100162.81;1739215;82;21014;-77
2021/11/04 00:09:32;;;;;;;30.02;24.67;;;;;;;7.43;93.11;100156.50;1690346;82;21024;-80
2021/11/04 00:11:58;;;;;;;27.40;22.67;;;;;;;7.43;93.50;100155.95;1730523;81;21092;-78
2021/11/04 00:14:24;;;;;;;28.70;21.33;;;;;;;7.45;93.71;100165.11;1711280;83;20986;-78
2021/11/04 00:16:51;;;;;;;32.63;24.40;;;;;;;7.44;94.03;100170.16;1685097;84;21045;-81
2021/11/04 00:19:17;;;;;;;31.30;23.62;;;;;;;7.43;94.02;100170.67;1737921;81;21036;-79
2021/11/04 00:21:45;;;;;;;33.23;24.75;;;;;;;7.44;94.32;100166.97;1765246;80;21544;-77
2021/11/04 00:24:12;;;;;;;32.00;25.82;;;;;;;7.44;94.53;100170.16;1765398;80;21512;-76
2021/11/04 00:26:38;;;;;;;29.75;24.57;;;;;;;7.49;94.65;100169.50;1738804;82;21496;-75
2021/11/04 00:29:05;;;;;;;24.12;20.68;;;;;;;7.53;94.62;100172.86;1713416;82;20987;-76
2021/11/04 00:31:32;;;;;;;27.00;23.62;;;;;;;7.59;94.73;100168.50;1759184;81;20988;-79
2021/11/04 00:33:58;;;;;;;27.20;23.20;;;;;;;7.59;94.37;100165.82;1685734;83;21096;-76
2021/11/04 00:36:25;;;;;;;32.55;22.42;;;;;;;7.59;94.19;100172.00;1707735;83;21019;-75
2021/11/04 00:38:51;;;;;;;26.77;21.95;;;;;;;7.60;94.03;100168.28;1692147;84;21043;-89
2021/11/04 00:41:17;;;;;;;24.40;21.48;;;;;;;7.62;93.89;100177.45;1693627;82;21067;-74
2021/11/04 00:43:44;;;;;;;31.40;22.87;;;;;;;7.65;93.77;100172.47;1681030;82;21068;-79
2021/11/04 00:46:11;;;;;;;27.80;21.37;;;;;;;7.70;93.61;100170.47;1703990;83;21019;-78
2021/11/04 00:48:38;;;;;;;28.32;23.25;;;;;;;7.74;93.12;100177.02;1702991;84;21142;-81
2021/11/04 00:51:04;;;;;;;29.60;22.80;;;;;;;7.69;92.68;100166.14;1756327;80;21534;-76
2021/11/04 00:53:32;;;;;;;29.75;24.07;;;;;;;7.59;92.30;100162.63;1707932;82;21065;-76
2021/11/04 00:56:00;;;;;;;28.60;21.48;;;;;;;7.53;92.51;100166.72;1707583;82;21046;-77
2021/11/04 00:58:26;;;;;;;31.48;22.93;;;;;;;7.51;92.79;100178.97;1707571;82;21009;-76
2021/11/04 01:00:53;;;;;;;37.83;28.12;;;;;;;7.47;92.99;100181.78;1708572;82;21282;-75
2021/11/04 01:03:22;;;;;;;31.68;26.50;;;;;;;7.43;93.54;100175.23;1732220;81;20959;-72
2021/11/04 01:05:49;;;;;;;33.02;27.00;;;;;;;7.44;93.90;100170.98;1761144;81;21020;-70
2021/11/04 01:08:15;;;;;;;31.87;23.73;;;;;;;7.51;94.09;100172.28;1734956;81;21070;-73
2021/11/04 01:10:42;;;;;;;29.40;23.67;;;;;;;7.52;94.11;100175.27;1755517;81;21681;-72
2021/11/04 01:13:09;;;;;;;29.40;24.02;;;;;;;7.48;94.25;100174.58;1707205;82;21081;-78
2021/11/04 01:15:35;;;;;;;28.77;23.40;;;;;;;7.42;94.58;100177.08;1741797;81;21558;-74
2021/11/04 01:18:02;;;;;;;28.77;22.73;;;;;;;7.43;94.98;100177.91;1763802;81;21011;-75
2021/11/04 01:20:28;;;;;;;29.07;22.70;;;;;;;7.45;95.30;100185.19;1759714;81;21571;-74
2021/11/04 01:22:55;;;;;;;31.52;25.60;;;;;;;7.45;95.56;100182.50;1709610;81;21031;-74
2021/11/04 01:25:22;;;;;;;29.50;24.43;;;;;;;7.47;95.65;100181.78;1735222;81;21118;-72
2021/11/04 01:27:48;;;;;;;27.80;23.40;;;;;;;7.56;95.64;100180.98;1730036;83;21026;-74
2021/11/04 01:30:15;;;;;;;29.57;24.90;;;;;;;7.61;95.50;100174.46;1709470;81;20995;-74
2021/11/04 01:32:41;;;;;;;31.15;24.52;;;;;;;7.66;95.29;100186.67;1761770;80;21065;-70
2021/11/04 01:35:08;;;;;;;31.70;24.02;;;;;;;7.70;95.10;100185.20;1717446;82;21093;-75
2021/11/04 01:37:36;;;;;;;28.57;24.07;;;;;;;7.72;94.99;100183.92;1743001;82;21201;-79
2021/11/04 01:40:04;;;;;;;39.30;26.82;;;;;;;7.75;94.97;100190.72;1730412;82;20939;-80
2021/11/04 01:42:31;;;;;;;29.00;24.52;;;;;;;7.80;94.80;100189.54;1731043;82;20986;-76
2021/11/04 01:44:57;;;;;;;30.10;24.00;;;;;;;7.83;94.41;100197.95;1730759;82;21022;-75
2021/11/04 01:47:23;;;;;;;29.18;24.10;;;;;;;7.83;94.17;100193.11;1730576;83;21531;-79
2021/11/04 01:49:51;;;;;;;31.73;24.15;;;;;;;7.79;93.68;100194.07;1699515;83;21368;-79
2021/11/04 01:52:17;;;;;;;31.93;24.92;;;;;;;7.71;93.59;100186.33;1742044;81;20967;-79
2021/11/04 01:54:43;;;;;;;32.20;26.05;;;;;;;7.71;93.72;100190.86;1741991;81;21027;-81
2021/11/04 01:57:10;;;;;;;27.70;24.00;;;;;;;7.74;93.73;100190.41;1702711;83;21062;-79
2021/11/04 01:59:36;;;;;;;28.95;24.27;;;;;;;7.80;93.87;100197.57;1702605;83;21121;-77
2021/11/04 02:02:07;;;;;;;34.10;26.93;;;;;;;7.80;93.46;100198.39;1730393;81;21442;-80
2021/11/04 02:04:57;;;;;;;31.68;25.02;;;;;;;7.82;93.39;100207.02;1744157;81;21033;-77
2021/11/04 02:07:42;;;;;;;26.02;21.07;;;;;;;7.82;93.27;100208.35;1702749;83;21053;-79
2021/11/04 02:10:26;;;;;;;32.05;22.35;;;;;;;7.66;93.54;100208.91;1702777;83;21074;-76
2021/11/04 02:13:25;;;;;;;25.23;20.77;;;;;;;7.57;93.93;100215.58;1729591;82;21071;-83
2021/11/04 02:15:57;;;;;;;24.18;18.07;;;;;;;7.52;94.34;100211.39;1731006;82;21274;-76
2021/11/04 02:18:24;;;;;;;26.90;22.15;;;;;;;7.50;94.48;100216.13;1704013;82;21520;-80
2021/11/04 02:21:11;;;;;;;28.85;24.07;;;;;;;7.45;94.55;100218.63;1708373;81;21019;-81
2021/11/04 02:24:01;;;;;;;30.75;24.10;;;;;;;7.39;94.77;100216.81;1754719;81;21097;-83
2021/11/04 02:26:28;;;;;;;33.63;26.17;;;;;;;7.41;95.08;100220.11;1674131;83;21074;-73
2021/11/04 02:28:54;;;;;;;27.98;22.48;;;;;;;7.40;95.16;100224.63;1729064;82;21136;-70
2021/11/04 02:31:21;;;;;;;28.42;22.37;;;;;;;7.36;95.44;100223.44;1729510;82;20959;-70
2021/11/04 02:33:47;;;;;;;25.45;21.80;;;;;;;7.31;95.69;100225.94;1658339;81;20978;-70
2021/11/04 02:36:13;;;;;;;28.32;22.67;;;;;;;7.25;95.80;100232.65;1749416;81;21007;-73
2021/11/04 02:38:41;;;;;;;27.93;20.52;;;;;;;7.19;95.98;100237.03;1731904;81;21070;-72
2021/11/04 02:41:07;;;;;;;25.10;19.48;;;;;;;7.17;96.02;100227.05;1762199;80;21220;-72
2021/11/04 02:43:34;;;;;;;31.07;21.75;;;;;;;7.11;96.04;100227.89;1740063;81;20964;-71
2021/11/04 02:46:01;;;;;;;26.75;23.70;;;;;;;7.08;96.14;100239.03;1740220;82;21497;-72
2021/11/04 02:48:29;;;;;;;33.18;23.52;;;;;;;7.08;96.24;100253.74;1740460;81;21071;-70
2021/11/04 02:50:56;;;;;;;21.70;18.30;;;;;;;7.05;96.21;100255.48;1741437;81;21555;-72
2021/11/04 02:53:25;;;;;;;36.38;27.40;;;;;;;7.06;96.29;100260.32;1749772;81;21830;-70
2021/11/04 02:55:52;;;;;;;33.30;25.00;;;;;;;6.98;95.84;100264.89;1751992;81;20970;-71
2021/11/04 02:58:19;;;;;;;33.02;24.98;;;;;;;6.74;94.04;100275.47;1735225;81;20930;-69
2021/11/04 03:00:49;;;;;;;28.55;23.25;;;;;;;6.49;93.73;100276.66;1740366;81;21088;-71
2021/11/04 03:03:16;;;;;;;35.58;24.90;;;;;;;6.25;92.97;100281.32;1741215;81;21556;-71
2021/11/04 03:05:43;;;;;;;38.67;25.52;;;;;;;5.99;92.69;100287.00;1766070;81;21273;-70
2021/11/04 03:08:09;;;;;;;27.13;22.20;;;;;;;5.89;93.08;100291.10;1766175;81;21066;-71
2021/11/04 03:10:36;;;;;;;28.83;23.50;;;;;;;5.85;93.38;100294.64;1766365;81;21027;-70
2021/11/04 03:13:03;;;;;;;28.30;19.48;;;;;;;5.80;93.31;100297.13;1738020;81;21051;-75
2021/11/04 03:15:40;;;;;;;25.27;22.50;;;;;;;5.83;93.57;100294.55;1755744;81;21008;-72
2021/11/04 03:18:08;;;;;;;23.00;17.73;;;;;;;5.77;93.12;100296.69;1729351;81;21805;-74
2021/11/04 03:20:35;;;;;;;20.57;18.40;;;;;;;5.62;93.07;100296.36;1716128;82;21027;-74
2021/11/04 03:23:03;;;;;;;22.22;17.62;;;;;;;5.51;93.23;100293.48;1723033;81;21005;-75
2021/11/04 03:25:31;;;;;;;23.95;20.12;;;;;;;5.40;93.73;100298.06;1755631;81;21170;-73
2021/11/04 03:27:59;;;;;;;21.02;16.62;;;;;;;5.23;93.90;100302.42;1752676;80;21039;-73
2021/11/04 03:30:27;;;;;;;19.60;14.75;;;;;;;5.05;94.22;100303.48;1740379;80;21175;-74
2021/11/04 03:32:57;;;;;;;19.52;16.67;;;;;;;5.03;95.38;100306.88;1740258;82;20924;-71
2021/11/04 03:35:25;;;;;;;23.22;17.32;;;;;;;5.01;95.88;100317.41;1771949;80;20990;-72
2021/11/04 03:37:51;;;;;;;21.33;16.82;;;;;;;5.03;96.46;100320.20;1769396;80;21034;-75
2021/11/04 03:40:17;;;;;;;21.45;16.25;;;;;;;5.03;96.80;100329.53;1714140;81;21083;-72
2021/11/04 03:42:44;;;;;;;19.27;15.58;;;;;;;5.00;97.38;100331.75;1746965;80;21138;-72
2021/11/04 03:45:12;;;;;;;16.57;13.90;;;;;;;5.01;97.71;100325.41;1761210;81;21477;-73
2021/11/04 03:47:38;;;;;;;15.10;13.60;;;;;;;5.05;98.21;100318.66;1735027;81;21512;-73
2021/11/04 03:50:05;;;;;;;16.55;14.87;;;;;;;5.11;98.82;100306.70;1751407;81;20980;-75
2021/11/04 03:52:32;;;;;;;17.10;14.85;;;;;;;5.16;99.35;100302.92;1734990;81;21027;-74
2021/11/04 03:54:59;;;;;;;14.45;12.85;;;;;;;5.22;100.00;100305.30;1760680;81;21369;-73
2021/11/04 03:57:25;;;;;;;13.15;11.75;;;;;;;5.26;100.00;100303.37;1761321;81;20932;-73
2021/11/04 03:59:52;;;;;;;13.88;12.47;;;;;;;5.34;100.00;100305.02;1745482;81;20991;-74
2021/11/04 04:02:20;;;;;;;11.90;10.50;;;;;;;5.40;100.00;100303.40;1759736;81;21578;-74
2021/11/04 04:04:57;;;;;;;11.45;10.35;;;;;;;5.42;100.00;100299.49;1761032;81;20997;-74
2021/11/04 04:07:28;;;;;;;10.50;9.48;;;;;;;5.38;99.89;100301.44;1759317;81;21046;-73
2021/11/04 04:09:55;;;;;;;9.40;8.45;;;;;;;5.32;99.83;100296.42;1719609;82;21559;-75
2021/11/04 04:12:22;;;;;;;9.75;8.75;;;;;;;5.32;100.00;100289.75;1736852;81;21014;-75
2021/11/04 04:14:49;;;;;;;9.38;8.58;;;;;;;5.33;100.00;100290.03;1743265;82;21531;-75
2021/11/04 04:17:17;;;;;;;9.73;8.40;;;;;;;5.39;100.00;100283.08;1736918;81;21536;-75
2021/11/04 04:19:44;;;;;;;11.53;10.43;;;;;;;5.42;99.82;100274.69;1702527;81;21615;-74
2021/11/04 04:22:12;;;;;;;11.33;10.15;;;;;;;5.39;99.23;100272.41;1760837;80;47013;-75
2021/11/04 04:24:38;;;;;;;10.23;9.20;;;;;;;5.30;98.70;100266.45;1760893;81;21457;-76
2021/11/04 04:27:05;;;;;;;11.28;10.03;;;;;;;5.19;98.60;100273.17;1741704;81;21036;-75
2021/11/04 04:29:31;;;;;;;9.95;9.05;;;;;;;5.14;98.70;100280.95;1744274;81;21000;-75
2021/11/04 04:31:59;;;;;;;10.53;8.80;;;;;;;5.09;98.69;100282.57;1743198;81;21119;-75
2021/11/04 04:34:27;;;;;;;9.05;8.03;;;;;;;5.08;98.96;100288.95;1725997;82;20971;-75
2021/11/04 04:36:54;;;;;;;9.95;8.95;;;;;;;5.12;99.18;100294.19;1743049;81;20930;-74
2021/11/04 04:39:20;;;;;;;11.88;9.68;;;;;;;5.15;99.23;100285.27;1712828;83;20955;-76
2021/11/04 04:41:46;;;;;;;12.78;11.53;;;;;;;5.17;99.17;100288.58;1701400;83;21034;-75
2021/11/04 04:44:13;;;;;;;20.10;12.63;;;;;;;5.18;99.08;100297.40;1712821;83;21073;-74
2021/11/04 04:46:39;;;;;;;24.07;15.32;;;;;;;5.12;98.90;100296.85;1703823;82;21050;-74
2021/11/04 04:49:05;;;;;;;24.67;15.90;;;;;;;5.08;99.02;100294.28;1743804;81;21043;-76
2021/11/04 04:51:32;;;;;;;24.67;17.42;;;;;;;5.08;99.14;100287.62;1743260;81;21493;-76
2021/11/04 04:53:59;;;;;;;26.35;17.10;;;;;;;5.05;99.12;100287.48;1713441;83;21632;-75
2021/11/04 04:56:27;;;;;;;24.82;17.48;;;;;;;5.03;99.05;100285.55;1712068;83;21509;-74
2021/11/04 04:58:53;;;;;;;32.75;21.17;;;;;;;5.04;98.97;100289.01;1745083;81;20999;-73
2021/11/04 05:01:20;;;;;;;19.40;17.37;;;;;;;4.96;98.72;100288.69;1743359;82;21539;-71
2021/11/04 05:03:46;;;;;;;23.67;17.75;;;;;;;4.95;98.79;100284.87;1779634;80;21000;-72
2021/11/04 05:06:13;;;;;;;17.52;13.93;;;;;;;4.99;98.86;100286.15;1779639;80;21070;-69
2021/11/04 05:08:39;;;;;;;15.28;12.20;;;;;;;5.03;98.71;100286.88;1728302;81;21296;-69
2021/11/04 05:11:06;;;;;;;14.13;12.47;;;;;;;5.03;98.54;100284.22;1761625;81;20928;-70
2021/11/04 05:13:32;;;;;;;16.50;12.28;;;;;;;5.04;98.26;100281.02;1761508;81;20896;-70
2021/11/04 05:15:59;;;;;;;11.75;10.55;;;;;;;5.00;97.72;100278.44;1741600;81;21521;-71
2021/11/04 05:18:25;;;;;;;14.55;11.12;;;;;;;4.96;97.44;100279.36;1706872;83;21015;-68
2021/11/04 05:20:52;;;;;;;16.60;11.43;;;;;;;4.88;97.07;100270.72;1713591;82;21070;-70
2021/11/04 05:23:18;;;;;;;13.18;11.33;;;;;;;4.75;96.89;100270.95;1713601;83;21033;-69
2021/11/04 05:25:44;;;;;;;12.85;11.57;;;;;;;4.68;96.99;100279.94;1732438;82;21484;-68
2021/11/04 05:28:11;;;;;;;12.73;10.53;;;;;;;4.62;97.12;100273.55;1712630;82;20988;-71
2021/11/04 05:30:37;;;;;;;12.80;11.50;;;;;;;4.64;97.35;100264.05;1763333;80;21048;-72
2021/11/04 05:33:04;;;;;;;15.83;12.00;;;;;;;4.59;97.23;100262.48;1682811;84;22410;-71
2021/11/04 05:35:31;;;;;;;20.68;16.20;;;;;;;4.53;97.22;100265.92;1659331;85;21660;-71
2021/11/04 05:37:57;;;;;;;24.27;19.17;;;;;;;4.45;97.38;100272.75;1748995;81;21564;-70
2021/11/04 05:40:23;;;;;;;30.60;20.82;;;;;;;4.41;97.71;100275.50;1728589;82;21019;-73
2021/11/04 05:42:51;;;;;;;28.23;22.58;;;;;;;4.46;98.15;100279.19;1743376;80;21071;-72
2021/11/04 05:45:17;;;;;;;36.53;31.42;;;;;;;4.51;98.28;100277.30;1779325;79;21292;-72
2021/11/04 05:47:45;;;;;;;42.65;30.43;;;;;;;4.49;98.15;100276.16;1732958;81;20987;-72
2021/11/04 05:50:13;;;;;;;41.23;29.45;;;;;;;4.46;98.17;100271.73;1697858;84;21016;-72
2021/11/04 05:52:40;;;;;;;42.80;28.67;;;;;;;4.42;98.23;100279.27;1698062;84;21056;-71
2021/11/04 05:55:07;;;;;;;41.28;30.68;;;;;;;4.32;98.38;100280.95;1714248;81;21036;-72
2021/11/04 05:57:34;;;;;;;32.17;24.12;;;;;;;4.28;98.72;100279.70;1724194;82;21214;-74
2021/11/04 06:00:00;;;;;;;30.02;23.12;;;;;;;4.32;99.31;100280.13;1741467;81;21025;-73
2021/11/04 06:02:27;;;;;;;27.75;18.20;;;;;;;4.28;99.56;100285.02;1741362;81;21006;-73
2021/11/04 06:04:53;;;;;;;27.42;18.80;;;;;;;4.31;99.97;100283.33;1740617;81;20994;-74
2021/11/04 06:07:20;;;;;;;27.17;17.57;;;;;;;4.42;100.00;100293.09;1702003;82;21058;-73
2021/11/04 06:09:48;;;;;;;27.77;20.72;;;;;;;4.47;100.00;100294.16;1712228;83;21558;-72
2021/11/04 06:12:15;;;;;;;31.90;19.95;;;;;;;4.51;100.00;100301.27;1711825;83;21097;-70
2021/11/04 06:14:43;;;;;;;38.45;23.77;;;;;;;4.51;100.00;100302.06;1719820;81;20994;-73
2021/11/04 06:17:10;;;;;;;33.83;23.42;;;;;;;4.51;100.00;100303.94;1730114;82;20949;-71
2021/11/04 06:19:38;;;;;;;31.23;22.85;;;;;;;4.53;100.00;100319.19;1731602;82;21528;-71
2021/11/04 06:22:04;;;;;;;38.58;21.10;;;;;;;4.55;100.00;100324.66;1735297;82;21224;-71
2021/11/04 06:24:30;;;;;;;34.18;19.77;;;;;;;4.62;100.00;100330.01;1722590;82;20973;-69
2021/11/04 06:26:58;;;;;;;20.02;17.42;;;;;;;4.69;100.00;100324.22;1722557;82;21442;-72
2021/11/04 06:29:25;;;;;;;21.07;17.35;;;;;;;4.82;100.00;100328.28;1709988;82;21574;-71
2021/11/04 06:31:51;;;;;;;19.35;17.35;;;;;;;4.87;100.00;100338.36;1737706;82;21548;-72
2021/11/04 06:34:18;;;;;;;16.85;14.50;;;;;;;4.89;100.00;100346.48;1735312;82;21388;-71
2021/11/04 06:36:44;;;;;;;19.62;14.25;;;;;;;4.98;100.00;100341.30;1741831;82;20972;-71
2021/11/04 06:39:11;;;;;;;12.90;11.50;;;;;;;5.02;100.00;100349.21;1712618;82;20962;-73
2021/11/04 06:41:37;;;;;;;14.25;12.07;;;;;;;5.06;100.00;100344.30;1710022;82;21544;-72
2021/11/04 06:44:04;;;;;;;12.37;11.03;;;;;;;5.04;100.00;100350.32;1721432;81;20964;-72
2021/11/04 06:46:31;;;;;;;11.93;10.35;;;;;;;5.02;100.00;100359.88;1751654;81;21302;-71
2021/11/04 06:49:07;;;;;;;11.80;10.63;;;;;;;5.05;100.00;100360.80;1739025;81;21591;-74
2021/11/04 06:51:42;;;;;;;13.13;11.60;;;;;;;5.13;100.00;100360.62;1757141;80;21045;-75
2021/11/04 06:54:13;;;;;;;14.95;10.15;;;;;;;5.17;100.00;100355.23;1728002;82;21049;-75
2021/11/04 06:56:42;;;;;;;14.18;10.93;;;;;;;5.19;100.00;100347.84;1752135;82;21036;-74
2021/11/04 06:59:25;;;;;;;19.10;12.80;;;;;;;5.23;100.00;100354.42;1751817;82;21149;-74
2021/11/04 07:01:56;;;;;;;15.80;11.00;;;;;;;5.28;100.00;100357.31;1765449;81;21090;-73
2021/11/04 07:04:34;;;;;;;14.18;10.38;;;;;;;5.33;100.00;100355.37;1752388;80;20977;-74
2021/11/04 07:07:07;;;;;;;12.53;11.20;;;;;;;5.37;100.00;100341.16;1728644;81;21545;-75
2021/11/04 07:09:40;;;;;;;12.30;10.90;;;;;;;5.42;100.00;100340.84;1752120;81;21541;-73
2021/11/04 07:12:11;;;;;;;15.20;10.63;;;;;;;5.49;100.00;100339.54;1768015;81;20963;-74
2021/11/04 07:14:40;;;;;;;11.70;10.13;;;;;;;5.54;100.00;100337.09;1767164;80;21109;-75
2021/11/04 07:17:07;;;;;;;16.48;11.90;;;;;;;5.56;100.00;100332.39;1742384;81;20987;-74
2021/11/04 07:19:33;;;;;;;18.17;14.33;;;;;;;5.59;100.00;100334.14;1754635;81;21519;-72
2021/11/04 07:22:17;;;;;;;15.85;12.70;;;;;;;5.63;100.00;100318.53;1746749;80;21084;-74
2021/11/04 07:24:47;;;;;;;15.20;13.60;;;;;;;5.68;100.00;100330.25;1758979;80;21222;-75
2021/11/04 07:27:24;;;;;;;14.23;11.93;;;;;;;5.74;100.00;100316.61;1741632;81;21486;-75
2021/11/04 07:29:50;;;;;;;17.87;13.90;;;;;;;5.81;100.00;100309.93;1741172;81;20964;-73
2021/11/04 07:32:17;;;;;;;18.40;14.55;;;;;;;5.84;100.00;100314.88;1715156;82;21017;-75
2021/11/04 07:34:45;;;;;;;18.40;15.05;;;;;;;5.85;100.00;100313.33;1713570;82;21070;-74
2021/11/04 07:37:13;;;;;;;16.20;13.78;;;;;;;5.91;100.00;100309.88;1736591;82;21959;-75
2021/11/04 07:39:40;;;;;;;22.20;17.15;;;;;;;6.03;100.00;100308.26;1728265;82;21048;-75
2021/11/04 07:42:07;;;;;;;17.23;14.58;;;;;;;6.07;100.00;100306.81;1719539;81;21523;-75
2021/11/04 07:44:35;;;;;;;18.17;14.68;;;;;;;6.12;100.00;100288.84;1754984;81;21611;-74
2021/11/04 07:47:03;;;;;;;20.95;17.75;;;;;;;6.16;100.00;100288.73;1743267;80;21045;-75
2021/11/04 07:49:31;;;;;;;22.13;15.05;;;;;;;6.21;100.00;100281.44;1776484;80;21050;-73
2021/11/04 07:52:00;;;;;;;23.42;18.17;;;;;;;6.28;100.00;100279.59;1771639;80;21086;-72
2021/11/04 07:54:26;;;;;;;31.50;22.55;;;;;;;6.35;100.00;100279.88;1739456;80;21519;-73
2021/11/04 07:56:52;;;;;;;34.65;23.42;;;;;;;6.43;100.00;100282.83;1740321;80;21007;-73
2021/11/04 07:59:19;;;;;;;34.98;23.90;;;;;;;6.45;100.00;100283.45;1740192;82;21031;-70
2021/11/04 08:01:45;;;;;;;36.45;25.40;;;;;;;6.52;100.00;100279.73;1772346;80;21038;-73
2021/11/04 08:04:11;;;;;;;33.42;21.42;;;;;;;6.62;100.00;100281.17;1721975;82;21003;-74
2021/11/04 08:06:39;;;;;;;25.90;20.97;;;;;;;6.74;100.00;100286.98;1709084;84;21026;-74
2021/11/04 08:09:05;;;;;;;36.90;25.35;;;;;;;6.81;100.00;100289.66;1736140;81;21932;-74
2021/11/04 08:11:31;;;;;;;35.13;24.32;;;;;;;6.89;100.00;100282.22;1740113;82;21504;-76
2021/11/04 08:13:58;;;;;;;24.55;20.68;;;;;;;6.92;100.00;100276.95;1719106;81;21168;-72
2021/11/04 08:16:25;;;;;;;24.12;19.90;;;;;;;7.00;100.00;100274.05;1690916;84;21068;-71
2021/11/04 08:18:53;;;;;;;24.72;19.60;;;;;;;7.12;100.00;100277.69;1709208;83;20968;-70
2021/11/04 08:21:19;;;;;;;24.57;21.07;;;;;;;7.21;100.00;100279.08;1690488;84;21535;-73
2021/11/04 08:23:46;;;;;;;23.40;18.90;;;;;;;7.28;100.00;100285.75;1709582;84;21079;-77
2021/11/04 08:26:14;;;;;;;26.40;19.05;;;;;;;7.37;100.00;100295.16;1704551;83;22041;-70
2021/11/04 08:28:41;;;;;;;24.65;20.60;;;;;;;7.43;100.00;100287.08;1755025;81;21465;-74
2021/11/04 08:31:07;;;;;;;27.15;20.25;;;;;;;7.51;100.00;100282.52;1766124;81;21000;-75
2021/11/04 08:33:35;;;;;;;31.45;23.80;;;;;;;7.58;100.00;100277.97;1738052;81;21508;-74
2021/11/04 08:36:01;;;;;;;32.93;27.10;;;;;;;7.65;100.00;100287.58;1732208;81;21033;-76
2021/11/04 08:38:27;;;;;;;33.48;28.30;;;;;;;7.74;100.00;100294.83;1738448;81;21911;-75
2021/11/04 08:40:54;;;;;;;27.55;22.15;;;;;;;7.84;100.00;100287.97;1766007;81;21068;-74
2021/11/04 08:43:20;;;;;;;24.37;21.70;;;;;;;7.97;100.00;100284.87;1766308;81;20959;-74
2021/11/04 08:45:47;;;;;;;24.40;20.77;;;;;;;8.06;100.00;100284.89;1746217;81;21002;-75
2021/11/04 08:48:14;;;;;;;24.57;21.95;;;;;;;8.16;100.00;100274.51;1744583;81;21561;-74
2021/11/04 08:50:41;;;;;;;27.48;22.58;;;;;;;8.21;100.00;100268.80;1756767;81;21227;-75
2021/11/04 08:53:07;;;;;;;24.80;21.60;;;;;;;8.28;100.00;100264.72;1733186;81;20968;-75
2021/11/04 08:55:34;;;;;;;30.90;23.45;;;;;;;8.34;100.00;100259.04;1745744;81;20966;-74
2021/11/04 08:58:00;;;;;;;29.37;22.95;;;;;;;8.36;100.00;100258.28;1738548;82;21038;-74
2021/11/04 09:00:27;;;;;;;31.93;25.85;;;;;;;8.40;100.00;100252.77;1713472;82;21511;-74
2021/11/04 09:02:54;;;;;;;26.95;22.75;;;;;;;8.41;100.00;100256.58;1738522;82;21137;-74
2021/11/04 09:05:20;;;;;;;23.42;19.77;;;;;;;8.54;100.00;100260.45;1738682;82;21119;-74
2021/11/04 09:07:47;;;;;;;28.05;25.05;;;;;;;8.71;100.00;100253.47;1753925;81;20940;-73
2021/11/04 09:10:14;;;;;;;23.67;21.10;;;;;;;8.82;100.00;100253.77;1757101;81;21051;-76
2021/11/04 09:12:41;;;;;;;27.27;21.33;;;;;;;8.93;100.00;100247.11;1733230;81;21517;-72
2021/11/04 09:15:10;;;;;;;35.25;27.55;;;;;;;8.98;100.00;100250.46;1723188;82;21926;-73
2021/11/04 09:17:36;;;;;;;24.23;18.75;;;;;;;8.99;100.00;100254.27;1730904;81;21039;-73
2021/11/04 09:20:04;;;;;;;26.35;21.57;;;;;;;9.11;100.00;100244.95;1756616;81;21515;-74
2021/11/04 09:22:33;;;;;;;24.20;19.65;;;;;;;9.21;100.00;100245.75;1756907;81;21010;-74
2021/11/04 09:24:59;;;;;;;28.95;21.33;;;;;;;9.29;100.00;100249.45;1707890;83;21049;-73
2021/11/04 09:27:25;;;;;;;25.00;22.07;;;;;;;9.33;100.00;100254.65;1714742;81;20990;-74
2021/11/04 09:29:52;;;;;;;24.87;21.70;;;;;;;9.32;100.00;100248.46;1720875;81;21020;-71
2021/11/04 09:32:18;;;;;;;29.20;21.27;;;;;;;9.33;100.00;100251.45;1744149;81;20934;-72
2021/11/04 09:34:45;;;;;;;35.25;24.63;;;;;;;9.34;100.00;100249.06;1739217;81;20997;-71
2021/11/04 09:37:11;;;;;;;35.80;22.93;;;;;;;9.39;100.00;100247.03;1735714;82;21506;-71
2021/11/04 09:39:38;;;;;;;33.15;23.95;;;;;;;9.38;100.00;100256.95;1720623;82;21861;-72
2021/11/04 09:42:06;;;;;;;28.45;24.45;;;;;;;9.38;100.00;100259.63;1720654;82;21011;-72
2021/11/04 09:44:33;;;;;;;28.73;25.72;;;;;;;9.45;100.00;100250.95;1743628;81;21481;-72
2021/11/04 09:46:59;;;;;;;29.30;24.65;;;;;;;9.54;100.00;100241.52;1761558;79;20970;-72
2021/11/04 09:49:28;;;;;;;30.37;24.67;;;;;;;9.71;100.00;100236.84;1713757;81;21058;-74
2021/11/04 09:51:56;;;;;;;30.25;22.52;;;;;;;9.82;100.00;100238.73;1738261;81;21555;-75
2021/11/04 09:54:24;;;;;;;32.53;25.60;;;;;;;9.93;100.00;100240.08;1735760;81;21325;-74
2021/11/04 09:56:52;;;;;;;29.25;24.27;;;;;;;10.02;100.00;100240.58;1759929;81;20993;-70
2021/11/04 09:59:18;;;;;;;29.00;25.12;;;;;;;10.16;100.00;100239.85;1741187;81;21104;-74
2021/11/04 10:01:48;;;;;;;39.33;27.48;;;;;;;10.25;100.00;100237.10;1725614;82;21165;-73
2021/11/04 10:04:15;;;;;;;36.03;27.07;;;;;;;10.36;100.00;100232.25;1745679;81;22021;-74
2021/11/04 10:06:41;;;;;;;39.92;29.95;;;;;;;10.46;100.00;100238.66;1728256;82;20917;-73
2021/11/04 10:09:10;;;;;;;30.50;27.20;;;;;;;10.61;100.00;100233.31;1770386;80;20948;-74
2021/11/04 10:11:42;;;;;;;32.55;26.95;;;;;;;10.71;100.00;100236.22;1762141;81;21011;-72
2021/11/04 10:14:15;;;;;;;30.35;23.12;;;;;;;10.81;100.00;100231.88;1738121;81;21041;-72
2021/11/04 10:16:43;;;;;;;28.20;23.47;;;;;;;10.97;100.00;100238.91;1761988;81;21079;-71
2021/11/04 10:19:11;;;;;;;28.02;22.62;;;;;;;11.07;100.00;100227.00;1751120;81;21058;-72
2021/11/04 10:21:47;;;;;;;37.58;25.10;;;;;;;11.13;100.00;100223.33;1741267;82;20988;-73
2021/11/04 10:24:18;;;;;;;31.93;25.80;;;;;;;11.15;100.00;100223.92;1735419;82;21055;-74
2021/11/04 10:26:45;;;;;;;38.23;28.05;;;;;;;11.22;100.00;100211.94;1722796;82;21642;-72
2021/11/04 10:29:14;;;;;;;32.48;24.75;;;;;;;11.28;100.00;100206.12;1722237;82;21907;-72
2021/11/04 10:31:45;;;;;;;29.92;25.97;;;;;;;11.31;100.00;100205.12;1722326;82;20971;-74
2021/11/04 10:34:15;;;;;;;28.70;24.37;;;;;;;11.33;99.48;100198.95;1712134;82;21091;-71
2021/11/04 10:36:44;;;;;;;30.05;26.93;;;;;;;11.35;98.84;100187.95;1743854;82;21055;-72
2021/11/04 10:39:10;;;;;;;39.38;28.70;;;;;;;11.43;99.02;100194.27;1732218;82;21032;-72
2021/11/04 10:41:39;;;;;;;33.65;30.08;;;;;;;11.48;98.29;100195.71;1728166;82;21845;-77
2021/11/04 10:44:10;;;;;;;36.48;28.62;;;;;;;11.49;98.06;100193.31;1766593;80;21045;-79
2021/11/04 10:46:48;;;;;;;31.95;27.60;;;;;;;11.50;97.95;100190.09;1777470;79;21105;-77
2021/11/04 10:49:16;;;;;;;29.42;24.82;;;;;;;11.49;97.86;100196.53;1716481;82;21080;-79
2021/11/04 10:51:42;;;;;;;33.18;27.90;;;;;;;11.52;98.01;100187.95;1727814;82;21034;-77
2021/11/04 10:54:12;;;;;;;32.17;27.37;;;;;;;11.58;97.92;100203.15;1720852;82;21141;-82
2021/11/04 10:56:41;;;;;;;32.03;24.52;;;;;;;11.62;97.44;100194.86;1687699;82;21494;-80
2021/11/04 10:59:12;;;;;;;32.95;26.17;;;;;;;11.65;97.32;100192.52;1761742;81;20936;-79
2021/11/04 11:01:48;;;;;;;32.00;24.77;;;;;;;11.70;97.34;100190.44;1727487;82;20952;-77
2021/11/04 11:04:18;;;;;;;27.48;24.57;;;;;;;11.76;97.36;100184.08;1706077;82;20951;-78
2021/11/04 11:06:58;;;;;;;33.40;27.93;;;;;;;11.84;97.16;100172.08;1705835;82;22040;-78
2021/11/04 11:09:27;;;;;;;38.00;33.70;;;;;;;11.88;96.85;100173.22;1749209;80;21078;-78
2021/11/04 11:11:59;;;;;;;35.20;29.10;;;;;;;11.93;96.75;100164.69;1696485;83;20967;-82
2021/11/04 11:14:27;;;;;;;;;;;;;;;12.00;95.78;100158.57;1719852;82;21051;-79
2021/11/04 11:16:57;;;;;;;34.65;27.42;;;;;;;12.03;95.63;100158.09;1699072;82;20443;-76
2021/11/04 11:19:26;;;;;;;33.10;28.27;;;;;;;12.09;94.51;100144.12;1703829;82;21155;-76